createdAt,value
2023-08-21T00:00:51.231Z,0.00
2023-08-21T00:01:51.197Z,0.00
2023-08-21T00:02:51.242Z,0.00
2023-08-21T00:03:51.263Z,0.00
2023-08-21T00:04:51.149Z,0.00
2023-08-21T00:05:51.702Z,0.00
2023-08-21T00:06:51.148Z,0.00
2023-08-21T00:07:51.122Z,0.00
2023-08-21T00:08:51.141Z,0.00
2023-08-21T00:09:51.096Z,0.00
2023-08-21T00:10:51.086Z,0.00
2023-08-21T00:11:51.095Z,0.00
2023-08-21T00:12:51.083Z,0.00
2023-08-21T00:13:51.075Z,0.00
2023-08-21T00:14:51.122Z,0.00
2023-08-21T00:15:57.699Z,0.00
2023-08-21T00:16:51.695Z,0.00
2023-08-21T00:17:53.713Z,0.00
2023-08-21T00:19:05.681Z,0.00
2023-08-21T00:19:51.018Z,0.00
2023-08-21T00:20:51.690Z,0.00
2023-08-21T00:21:50.986Z,0.00
2023-08-21T00:22:50.962Z,0.00
2023-08-21T00:23:51.214Z,0.00
2023-08-21T00:24:51.685Z,0.00
2023-08-21T00:25:50.921Z,0.00
2023-08-21T00:26:50.919Z,0.00
2023-08-21T00:27:50.894Z,0.00
2023-08-21T00:28:50.928Z,0.00
2023-08-21T00:29:50.879Z,0.00
2023-08-21T00:30:50.932Z,0.00
2023-08-21T00:31:50.865Z,0.00
2023-08-21T00:32:50.869Z,0.00
2023-08-21T00:33:50.848Z,0.00
2023-08-21T00:34:50.865Z,0.00
2023-08-21T00:35:53.687Z,0.00
2023-08-21T00:36:50.796Z,0.00
2023-08-21T00:37:50.797Z,0.00
2023-08-21T00:38:51.674Z,0.00
2023-08-21T00:39:50.785Z,0.00
2023-08-21T00:40:50.770Z,0.00
2023-08-21T00:41:50.762Z,0.00
2023-08-21T00:42:50.754Z,0.00
2023-08-21T00:43:50.734Z,0.00
2023-08-21T00:44:50.741Z,0.00
2023-08-21T00:45:51.928Z,0.00
2023-08-21T00:46:50.692Z,0.00
2023-08-21T00:47:53.224Z,0.00
2023-08-21T00:48:50.668Z,0.00
2023-08-21T00:49:50.673Z,0.00
2023-08-21T00:50:50.670Z,0.00
2023-08-21T00:51:51.201Z,0.00
2023-08-21T00:52:50.626Z,0.00
2023-08-21T00:53:50.625Z,0.00
2023-08-21T00:54:51.182Z,0.00
2023-08-21T00:55:50.617Z,0.00
2023-08-21T00:56:51.839Z,0.00
2023-08-21T00:57:50.597Z,0.00
2023-08-21T00:58:50.588Z,0.00
2023-08-21T00:59:50.579Z,0.00
2023-08-21T01:00:57.213Z,0.00
2023-08-21T01:01:50.575Z,0.00
2023-08-21T01:02:50.537Z,0.00
2023-08-21T01:03:50.520Z,0.00
2023-08-21T01:04:50.503Z,0.00
2023-08-21T01:05:50.773Z,0.00
2023-08-21T01:06:51.190Z,0.00
2023-08-21T01:07:50.483Z,0.00
2023-08-21T01:08:51.195Z,0.00
2023-08-21T01:09:52.197Z,0.00
2023-08-21T01:10:53.188Z,0.00
2023-08-21T01:11:50.425Z,0.00
2023-08-21T01:12:50.423Z,0.00
2023-08-21T01:13:50.403Z,0.00
2023-08-21T01:14:50.396Z,0.00
2023-08-21T01:15:50.433Z,0.00
2023-08-21T01:16:50.399Z,0.00
2023-08-21T01:17:51.240Z,0.00
2023-08-21T01:18:53.188Z,0.00
2023-08-21T01:19:50.370Z,0.00
2023-08-21T01:20:50.321Z,0.00
2023-08-21T01:21:51.197Z,0.00
2023-08-21T01:22:50.313Z,0.00
2023-08-21T01:23:50.318Z,0.00
2023-08-21T01:24:57.189Z,0.00
2023-08-21T01:25:50.292Z,0.00
2023-08-21T01:26:50.252Z,0.00
2023-08-21T01:27:51.205Z,0.00
2023-08-21T01:28:50.258Z,0.00
2023-08-21T01:29:50.235Z,0.00
2023-08-21T01:30:50.219Z,0.00
2023-08-21T01:31:51.293Z,0.00
2023-08-21T01:32:50.360Z,0.00
2023-08-21T01:33:50.182Z,0.00
2023-08-21T01:34:50.206Z,0.00
2023-08-21T01:35:50.148Z,0.00
2023-08-21T01:36:50.160Z,0.00
2023-08-21T01:37:50.168Z,0.00
2023-08-21T01:38:50.133Z,0.00
2023-08-21T01:39:50.134Z,0.00
2023-08-21T01:40:50.158Z,0.00
2023-08-21T01:41:50.124Z,0.00
2023-08-21T01:42:50.098Z,0.00
2023-08-21T01:43:50.081Z,0.00
2023-08-21T01:44:50.128Z,0.00
2023-08-21T01:45:50.071Z,0.00
2023-08-21T01:46:50.046Z,0.00
2023-08-21T01:47:50.124Z,0.00
2023-08-21T01:48:50.069Z,0.00
2023-08-21T01:50:04.701Z,0.00
2023-08-21T01:50:50.014Z,0.00
2023-08-21T01:51:56.796Z,0.00
2023-08-21T01:52:49.982Z,0.00
2023-08-21T01:53:49.997Z,0.00
2023-08-21T01:54:49.978Z,0.00
2023-08-21T01:55:50.691Z,0.00
2023-08-21T01:56:49.940Z,0.00
2023-08-21T01:57:50.708Z,0.00
2023-08-21T01:58:49.917Z,0.00
2023-08-21T01:59:49.909Z,0.00
2023-08-21T02:00:49.926Z,0.00
2023-08-21T02:01:49.891Z,0.00
2023-08-21T02:02:49.960Z,0.00
2023-08-21T02:03:52.709Z,0.00
2023-08-21T02:04:49.870Z,0.00
2023-08-21T02:05:49.846Z,0.00
2023-08-21T02:06:49.887Z,0.00
2023-08-21T02:07:49.824Z,0.00
2023-08-21T02:08:49.811Z,0.00
2023-08-21T02:09:50.708Z,0.00
2023-08-21T02:10:49.797Z,0.00
2023-08-21T02:11:49.778Z,0.00
2023-08-21T02:12:49.786Z,0.00
2023-08-21T02:13:50.734Z,0.00
2023-08-21T02:14:49.744Z,0.00
2023-08-21T02:15:49.763Z,0.00
2023-08-21T02:16:50.743Z,0.00
2023-08-21T02:17:49.724Z,0.00
2023-08-21T02:18:49.700Z,0.00
2023-08-21T02:19:49.695Z,0.00
2023-08-21T02:20:50.216Z,0.00
2023-08-21T02:21:49.747Z,0.00
2023-08-21T02:22:49.652Z,0.00
2023-08-21T02:23:49.671Z,0.00
2023-08-21T02:24:49.641Z,0.00
2023-08-21T02:25:49.634Z,0.00
2023-08-21T02:26:49.623Z,0.00
2023-08-21T02:27:52.296Z,0.00
2023-08-21T02:28:49.605Z,0.00
2023-08-21T02:29:49.581Z,0.00
2023-08-21T02:30:49.649Z,0.00
2023-08-21T02:31:49.616Z,0.00
2023-08-21T02:32:49.558Z,0.00
2023-08-21T02:33:49.550Z,0.00
2023-08-21T02:34:49.528Z,0.00
2023-08-21T02:35:49.517Z,0.00
2023-08-21T02:36:49.524Z,0.00
2023-08-21T02:37:49.492Z,0.00
2023-08-21T02:38:49.745Z,0.00
2023-08-21T02:39:49.476Z,0.00
2023-08-21T02:40:49.761Z,0.00
2023-08-21T02:41:50.203Z,0.00
2023-08-21T02:42:49.432Z,0.00
2023-08-21T02:43:49.432Z,0.00
2023-08-21T02:44:49.416Z,0.00
2023-08-21T02:45:49.440Z,0.00
2023-08-21T02:46:49.396Z,0.00
2023-08-21T02:47:49.445Z,0.00
2023-08-21T02:48:49.366Z,0.00
2023-08-21T02:49:49.361Z,0.00
2023-08-21T02:50:49.350Z,0.00
2023-08-21T02:51:50.240Z,0.00
2023-08-21T02:52:49.346Z,0.00
2023-08-21T02:53:49.322Z,0.00
2023-08-21T02:54:49.308Z,0.00
2023-08-21T02:55:49.329Z,0.00
2023-08-21T02:56:49.350Z,0.00
2023-08-21T02:57:49.261Z,0.00
2023-08-21T02:58:49.258Z,0.00
2023-08-21T02:59:49.256Z,0.00
2023-08-21T03:00:49.276Z,0.00
2023-08-21T03:01:49.287Z,0.00
2023-08-21T03:02:49.344Z,0.00
2023-08-21T03:03:49.218Z,0.00
2023-08-21T03:04:49.193Z,0.00
2023-08-21T03:05:49.201Z,0.00
2023-08-21T03:06:49.179Z,0.00
2023-08-21T03:07:49.187Z,0.00
2023-08-21T03:08:49.172Z,0.00
2023-08-21T03:09:49.196Z,0.00
2023-08-21T03:10:49.126Z,0.00
2023-08-21T03:11:49.127Z,0.00
2023-08-21T03:12:49.130Z,0.00
2023-08-21T03:13:49.102Z,0.00
2023-08-21T03:14:49.096Z,0.00
2023-08-21T03:15:49.088Z,0.00
2023-08-21T03:16:49.094Z,0.00
2023-08-21T03:17:49.119Z,0.00
2023-08-21T03:18:49.065Z,0.00
2023-08-21T03:19:49.052Z,0.00
2023-08-21T03:20:49.020Z,0.00
2023-08-21T03:21:49.031Z,0.00
2023-08-21T03:22:49.028Z,0.00
2023-08-21T03:23:48.999Z,0.00
2023-08-21T03:24:48.988Z,0.00
2023-08-21T03:25:48.983Z,0.00
2023-08-21T03:26:49.727Z,0.00
2023-08-21T03:27:48.982Z,0.00
2023-08-21T03:28:48.960Z,0.00
2023-08-21T03:29:48.938Z,0.00
2023-08-21T03:30:48.942Z,0.00
2023-08-21T03:31:48.907Z,0.00
2023-08-21T03:32:48.923Z,0.00
2023-08-21T03:33:49.280Z,0.00
2023-08-21T03:34:48.870Z,0.00
2023-08-21T03:35:49.700Z,0.00
2023-08-21T03:36:49.871Z,0.00
2023-08-21T03:37:48.830Z,0.00
2023-08-21T03:38:49.729Z,0.00
2023-08-21T03:39:48.853Z,0.00
2023-08-21T03:40:48.821Z,0.00
2023-08-21T03:41:49.248Z,0.00
2023-08-21T03:42:48.767Z,0.00
2023-08-21T03:43:48.774Z,0.00
2023-08-21T03:44:48.753Z,0.00
2023-08-21T03:45:48.795Z,0.00
2023-08-21T03:46:48.738Z,0.00
2023-08-21T03:47:48.773Z,0.00
2023-08-21T03:48:49.215Z,0.00
2023-08-21T03:49:48.699Z,0.00
2023-08-21T03:50:49.218Z,0.00
2023-08-21T03:51:48.749Z,0.00
2023-08-21T03:52:48.662Z,0.00
2023-08-21T03:53:48.653Z,0.00
2023-08-21T03:54:48.640Z,0.00
2023-08-21T03:55:48.649Z,0.00
2023-08-21T03:56:48.655Z,0.00
2023-08-21T03:58:09.611Z,0.00
2023-08-21T03:58:48.598Z,0.00
2023-08-21T03:59:48.604Z,0.00
2023-08-21T04:00:48.577Z,0.00
2023-08-21T04:01:48.767Z,0.00
2023-08-21T04:02:51.269Z,0.00
2023-08-21T04:03:48.673Z,0.00
2023-08-21T04:04:48.531Z,0.00
2023-08-21T04:05:51.220Z,0.00
2023-08-21T04:06:48.531Z,0.00
2023-08-21T04:07:48.538Z,0.00
2023-08-21T04:08:48.501Z,0.00
2023-08-21T04:09:48.467Z,0.00
2023-08-21T04:10:51.222Z,0.00
2023-08-21T04:11:48.443Z,0.00
2023-08-21T04:12:48.487Z,0.00
2023-08-21T04:13:48.425Z,0.00
2023-08-21T04:14:51.224Z,0.00
2023-08-21T04:15:48.420Z,0.00
2023-08-21T04:16:48.414Z,0.00
2023-08-21T04:17:51.283Z,0.00
2023-08-21T04:18:48.371Z,0.00
2023-08-21T04:19:48.359Z,0.00
2023-08-21T04:20:48.343Z,0.00
2023-08-21T04:21:51.229Z,0.00
2023-08-21T04:22:48.388Z,0.00
2023-08-21T04:23:48.313Z,0.00
2023-08-21T04:24:48.358Z,0.00
2023-08-21T04:25:48.290Z,0.00
2023-08-21T04:26:48.288Z,0.00
2023-08-21T04:27:48.281Z,0.00
2023-08-21T04:28:48.272Z,0.00
2023-08-21T04:29:49.235Z,0.00
2023-08-21T04:30:48.259Z,0.00
2023-08-21T04:31:54.754Z,0.00
2023-08-21T04:32:48.247Z,0.00
2023-08-21T04:33:48.200Z,0.00
2023-08-21T04:34:48.189Z,0.00
2023-08-21T04:35:48.176Z,0.00
2023-08-21T04:36:48.247Z,0.00
2023-08-21T04:37:48.732Z,5.62
2023-08-21T04:38:48.142Z,5.62
2023-08-21T04:39:48.135Z,5.62
2023-08-21T04:40:48.122Z,5.62
2023-08-21T04:41:48.132Z,5.62
2023-08-21T04:42:48.132Z,5.62
2023-08-21T04:43:48.096Z,5.62
2023-08-21T04:44:48.102Z,5.62
2023-08-21T04:45:48.154Z,5.62
2023-08-21T04:46:48.077Z,5.62
2023-08-21T04:47:48.108Z,5.62
2023-08-21T04:48:48.726Z,5.62
2023-08-21T04:49:48.021Z,5.62
2023-08-21T04:50:48.302Z,5.62
2023-08-21T04:51:48.012Z,5.62
2023-08-21T04:52:47.988Z,5.62
2023-08-21T04:53:47.987Z,5.62
2023-08-21T04:54:47.989Z,5.62
2023-08-21T04:55:47.959Z,5.62
2023-08-21T04:56:47.942Z,5.62
2023-08-21T04:57:47.929Z,5.62
2023-08-21T04:58:47.921Z,5.62
2023-08-21T04:59:47.927Z,5.62
2023-08-21T05:00:47.946Z,5.62
2023-08-21T05:01:47.946Z,5.62
2023-08-21T05:02:47.928Z,5.62
2023-08-21T05:03:47.923Z,5.62
2023-08-21T05:04:47.865Z,5.62
2023-08-21T05:05:47.852Z,5.62
2023-08-21T05:06:47.826Z,5.62
2023-08-21T05:07:47.816Z,11.25
2023-08-21T05:08:47.827Z,11.25
2023-08-21T05:09:47.801Z,11.25
2023-08-21T05:10:47.813Z,11.25
2023-08-21T05:11:47.783Z,11.25
2023-08-21T05:12:47.767Z,11.25
2023-08-21T05:13:47.760Z,11.25
2023-08-21T05:14:47.759Z,11.25
2023-08-21T05:15:47.774Z,11.25
2023-08-21T05:16:47.759Z,11.25
2023-08-21T05:17:47.772Z,11.25
2023-08-21T05:18:47.702Z,16.88
2023-08-21T05:19:47.708Z,16.88
2023-08-21T05:20:48.235Z,16.88
2023-08-21T05:21:47.689Z,16.88
2023-08-21T05:22:47.673Z,16.88
2023-08-21T05:23:47.652Z,22.50
2023-08-21T05:24:48.833Z,22.50
2023-08-21T05:25:47.633Z,22.50
2023-08-21T05:26:47.638Z,22.50
2023-08-21T05:27:47.624Z,22.50
2023-08-21T05:28:48.249Z,28.12
2023-08-21T05:29:47.582Z,28.12
2023-08-21T05:30:47.567Z,28.12
2023-08-21T05:31:47.668Z,28.12
2023-08-21T05:32:47.616Z,33.75
2023-08-21T05:33:47.543Z,33.75
2023-08-21T05:34:47.524Z,33.75
2023-08-21T05:35:48.232Z,33.75
2023-08-21T05:36:48.241Z,33.75
2023-08-21T05:37:47.495Z,39.38
2023-08-21T05:38:47.781Z,39.38
2023-08-21T05:39:47.473Z,39.38
2023-08-21T05:40:47.465Z,39.38
2023-08-21T05:41:50.240Z,45.00
2023-08-21T05:42:47.451Z,45.00
2023-08-21T05:43:47.457Z,45.00
2023-08-21T05:44:48.234Z,45.00
2023-08-21T05:45:48.233Z,50.62
2023-08-21T05:46:47.459Z,61.88
2023-08-21T05:47:47.447Z,61.88
2023-08-21T05:48:47.398Z,61.88
2023-08-21T05:49:50.242Z,61.88
2023-08-21T05:50:47.350Z,67.50
2023-08-21T05:51:47.342Z,78.75
2023-08-21T05:52:48.231Z,78.75
2023-08-21T05:53:50.242Z,67.50
2023-08-21T05:54:47.327Z,56.25
2023-08-21T05:55:47.300Z,56.25
2023-08-21T05:56:47.294Z,45.00
2023-08-21T05:57:47.265Z,45.00
2023-08-21T05:58:47.275Z,45.00
2023-08-21T05:59:47.271Z,45.00
2023-08-21T06:00:47.242Z,50.62
2023-08-21T06:01:47.741Z,50.62
2023-08-21T06:02:47.232Z,50.62
2023-08-21T06:03:47.873Z,50.62
2023-08-21T06:04:47.292Z,61.88
2023-08-21T06:05:47.196Z,73.12
2023-08-21T06:06:47.182Z,78.75
2023-08-21T06:07:47.750Z,78.75
2023-08-21T06:08:47.154Z,78.75
2023-08-21T06:09:47.756Z,78.75
2023-08-21T06:10:47.152Z,78.75
2023-08-21T06:11:47.769Z,67.50
2023-08-21T06:12:47.744Z,61.88
2023-08-21T06:13:47.099Z,56.25
2023-08-21T06:14:47.092Z,50.62
2023-08-21T06:15:47.111Z,50.62
2023-08-21T06:16:47.817Z,56.25
2023-08-21T06:17:47.086Z,56.25
2023-08-21T06:18:47.749Z,56.25
2023-08-21T06:19:47.745Z,61.88
2023-08-21T06:20:47.039Z,61.88
2023-08-21T06:21:47.284Z,56.25
2023-08-21T06:22:47.018Z,50.62
2023-08-21T06:23:46.995Z,50.62
2023-08-21T06:24:47.746Z,56.25
2023-08-21T06:25:47.742Z,56.25
2023-08-21T06:26:46.958Z,56.25
2023-08-21T06:27:57.745Z,56.25
2023-08-21T06:28:48.738Z,56.25
2023-08-21T06:29:46.936Z,56.25
2023-08-21T06:30:46.984Z,56.25
2023-08-21T06:31:47.756Z,56.25
2023-08-21T06:32:47.321Z,56.25
2023-08-21T06:33:46.893Z,56.25
2023-08-21T06:34:46.868Z,61.88
2023-08-21T06:35:46.874Z,61.88
2023-08-21T06:36:46.874Z,61.88
2023-08-21T06:37:46.837Z,61.88
2023-08-21T06:38:47.305Z,61.88
2023-08-21T06:39:46.855Z,61.88
2023-08-21T06:40:46.803Z,61.88
2023-08-21T06:41:47.752Z,67.50
2023-08-21T06:42:47.759Z,67.50
2023-08-21T06:43:46.805Z,67.50
2023-08-21T06:44:47.778Z,67.50
2023-08-21T06:45:46.766Z,73.12
2023-08-21T06:46:53.267Z,67.50
2023-08-21T06:47:46.801Z,67.50
2023-08-21T06:48:46.731Z,73.12
2023-08-21T06:49:46.793Z,78.75
2023-08-21T06:50:46.713Z,84.38
2023-08-21T06:51:46.708Z,84.38
2023-08-21T06:52:46.708Z,84.38
2023-08-21T06:53:46.663Z,78.75
2023-08-21T06:54:46.661Z,78.75
2023-08-21T06:55:46.674Z,78.75
2023-08-21T06:56:46.632Z,73.12
2023-08-21T06:57:46.634Z,73.12
2023-08-21T06:58:46.629Z,73.12
2023-08-21T06:59:49.265Z,73.12
2023-08-21T07:00:46.845Z,67.50
2023-08-21T07:01:46.624Z,67.50
2023-08-21T07:02:47.352Z,67.50
2023-08-21T07:03:46.569Z,73.12
2023-08-21T07:04:46.612Z,73.12
2023-08-21T07:05:47.263Z,73.12
2023-08-21T07:06:46.550Z,73.12
2023-08-21T07:07:46.520Z,73.12
2023-08-21T07:09:01.284Z,78.75
2023-08-21T07:09:46.500Z,78.75
2023-08-21T07:10:46.509Z,78.75
2023-08-21T07:11:46.540Z,84.38
2023-08-21T07:12:49.249Z,84.38
2023-08-21T07:13:46.456Z,78.75
2023-08-21T07:14:46.473Z,78.75
2023-08-21T07:15:46.457Z,73.12
2023-08-21T07:16:46.540Z,78.75
2023-08-21T07:17:46.463Z,78.75
2023-08-21T07:18:53.254Z,78.75
2023-08-21T07:19:49.264Z,78.75
2023-08-21T07:20:46.371Z,84.38
2023-08-21T07:21:47.399Z,84.38
2023-08-21T07:22:46.354Z,90.00
2023-08-21T07:23:46.354Z,90.00
2023-08-21T07:24:46.371Z,95.62
2023-08-21T07:25:46.326Z,95.62
2023-08-21T07:26:47.259Z,101.25
2023-08-21T07:27:46.302Z,106.88
2023-08-21T07:28:46.286Z,112.50
2023-08-21T07:29:47.298Z,112.50
2023-08-21T07:30:46.318Z,101.25
2023-08-21T07:31:46.346Z,101.25
2023-08-21T07:32:46.273Z,95.62
2023-08-21T07:33:46.238Z,95.62
2023-08-21T07:34:46.240Z,90.00
2023-08-21T07:35:46.217Z,84.38
2023-08-21T07:36:46.772Z,84.38
2023-08-21T07:37:46.211Z,78.75
2023-08-21T07:38:46.188Z,78.75
2023-08-21T07:39:46.172Z,78.75
2023-08-21T07:40:46.209Z,84.38
2023-08-21T07:41:46.765Z,90.00
2023-08-21T07:42:46.758Z,90.00
2023-08-21T07:43:46.162Z,101.25
2023-08-21T07:44:46.112Z,106.88
2023-08-21T07:45:46.138Z,106.88
2023-08-21T07:46:46.107Z,118.12
2023-08-21T07:47:52.939Z,123.75
2023-08-21T07:48:47.162Z,129.38
2023-08-21T07:49:47.805Z,118.12
2023-08-21T07:50:46.048Z,118.12
2023-08-21T07:51:46.055Z,112.50
2023-08-21T07:52:46.026Z,106.88
2023-08-21T07:53:46.012Z,101.25
2023-08-21T07:54:46.028Z,106.88
2023-08-21T07:55:46.010Z,118.12
2023-08-21T07:56:46.019Z,118.12
2023-08-21T07:57:45.971Z,118.12
2023-08-21T07:58:45.972Z,118.12
2023-08-21T07:59:45.952Z,123.75
2023-08-21T08:00:46.993Z,135.00
2023-08-21T08:01:45.969Z,146.25
2023-08-21T08:02:45.975Z,146.25
2023-08-21T08:03:45.918Z,129.38
2023-08-21T08:04:45.941Z,118.12
2023-08-21T08:05:54.822Z,123.75
2023-08-21T08:06:47.294Z,118.12
2023-08-21T08:07:45.869Z,106.88
2023-08-21T08:08:45.849Z,95.62
2023-08-21T08:09:52.762Z,90.00
2023-08-21T08:10:45.835Z,90.00
2023-08-21T08:11:45.818Z,90.00
2023-08-21T08:12:46.326Z,84.38
2023-08-21T08:13:46.839Z,84.38
2023-08-21T08:14:45.788Z,84.38
2023-08-21T08:15:45.799Z,84.38
2023-08-21T08:16:45.779Z,84.38
2023-08-21T08:17:45.791Z,84.38
2023-08-21T08:18:45.754Z,84.38
2023-08-21T08:19:45.734Z,90.00
2023-08-21T08:20:45.799Z,90.00
2023-08-21T08:21:45.749Z,90.00
2023-08-21T08:22:48.276Z,95.62
2023-08-21T08:23:46.289Z,95.62
2023-08-21T08:24:46.278Z,95.62
2023-08-21T08:25:45.661Z,90.00
2023-08-21T08:26:45.656Z,90.00
2023-08-21T08:27:45.803Z,90.00
2023-08-21T08:28:45.653Z,90.00
2023-08-21T08:29:48.266Z,90.00
2023-08-21T08:30:46.272Z,90.00
2023-08-21T08:31:45.650Z,90.00
2023-08-21T08:32:45.850Z,90.00
2023-08-21T08:33:46.268Z,78.75
2023-08-21T08:34:45.870Z,84.38
2023-08-21T08:35:45.587Z,84.38
2023-08-21T08:36:45.563Z,95.62
2023-08-21T08:37:45.520Z,95.62
2023-08-21T08:38:46.280Z,95.62
2023-08-21T08:39:45.500Z,90.00
2023-08-21T08:40:45.527Z,90.00
2023-08-21T08:41:45.474Z,90.00
2023-08-21T08:42:45.469Z,90.00
2023-08-21T08:43:45.484Z,90.00
2023-08-21T08:44:45.913Z,84.38
2023-08-21T08:45:48.689Z,90.00
2023-08-21T08:46:45.435Z,90.00
2023-08-21T08:47:45.431Z,106.88
2023-08-21T08:48:45.406Z,140.62
2023-08-21T08:49:45.409Z,140.62
2023-08-21T08:50:45.382Z,140.62
2023-08-21T08:51:46.394Z,140.62
2023-08-21T08:52:52.171Z,146.25
2023-08-21T08:53:48.285Z,163.12
2023-08-21T08:54:45.342Z,168.75
2023-08-21T08:55:52.277Z,163.12
2023-08-21T08:56:47.768Z,151.88
2023-08-21T08:57:45.310Z,146.25
2023-08-21T08:58:45.306Z,140.62
2023-08-21T08:59:45.289Z,146.25
2023-08-21T09:00:45.285Z,151.88
2023-08-21T09:01:45.328Z,151.88
2023-08-21T09:02:47.789Z,151.88
2023-08-21T09:03:45.841Z,151.88
2023-08-21T09:04:45.243Z,129.38
2023-08-21T09:05:45.800Z,118.12
2023-08-21T09:06:47.778Z,101.25
2023-08-21T09:07:45.191Z,95.62
2023-08-21T09:08:45.179Z,101.25
2023-08-21T09:09:45.165Z,106.88
2023-08-21T09:10:45.175Z,123.75
2023-08-21T09:11:45.169Z,146.25
2023-08-21T09:12:45.474Z,168.75
2023-08-21T09:13:45.129Z,180.00
2023-08-21T09:14:45.141Z,185.62
2023-08-21T09:15:45.217Z,196.88
2023-08-21T09:16:45.135Z,202.50
2023-08-21T09:17:45.132Z,208.12
2023-08-21T09:18:45.084Z,202.50
2023-08-21T09:19:45.122Z,196.88
2023-08-21T09:20:45.085Z,202.50
2023-08-21T09:21:45.067Z,202.50
2023-08-21T09:22:45.033Z,196.88
2023-08-21T09:23:45.018Z,185.62
2023-08-21T09:24:46.820Z,174.38
2023-08-21T09:25:44.997Z,174.38
2023-08-21T09:26:44.990Z,157.50
2023-08-21T09:27:45.009Z,135.00
2023-08-21T09:28:44.977Z,151.88
2023-08-21T09:29:44.961Z,157.50
2023-08-21T09:30:44.933Z,151.88
2023-08-21T09:31:45.044Z,168.75
2023-08-21T09:32:44.997Z,168.75
2023-08-21T09:33:44.938Z,185.62
2023-08-21T09:34:44.893Z,157.50
2023-08-21T09:35:44.900Z,135.00
2023-08-21T09:36:44.889Z,123.75
2023-08-21T09:37:44.870Z,106.88
2023-08-21T09:38:44.852Z,101.25
2023-08-21T09:39:44.858Z,95.62
2023-08-21T09:40:44.830Z,90.00
2023-08-21T09:41:44.828Z,90.00
2023-08-21T09:42:45.785Z,95.62
2023-08-21T09:43:44.822Z,95.62
2023-08-21T09:44:44.820Z,90.00
2023-08-21T09:45:44.796Z,90.00
2023-08-21T09:46:44.876Z,90.00
2023-08-21T09:47:45.350Z,101.25
2023-08-21T09:48:44.766Z,95.62
2023-08-21T09:49:45.280Z,90.00
2023-08-21T09:50:47.482Z,90.00
2023-08-21T09:51:44.716Z,84.38
2023-08-21T09:52:44.739Z,90.00
2023-08-21T09:53:44.690Z,90.00
2023-08-21T09:54:44.706Z,95.62
2023-08-21T09:55:44.674Z,101.25
2023-08-21T09:56:44.656Z,123.75
2023-08-21T09:57:45.296Z,129.38
2023-08-21T09:58:44.817Z,118.12
2023-08-21T09:59:45.293Z,123.75
2023-08-21T10:00:44.893Z,118.12
2023-08-21T10:01:45.308Z,118.12
2023-08-21T10:02:44.598Z,112.50
2023-08-21T10:03:47.303Z,90.00
2023-08-21T10:04:47.144Z,106.88
2023-08-21T10:05:45.295Z,106.88
2023-08-21T10:06:44.574Z,106.88
2023-08-21T10:07:45.360Z,118.12
2023-08-21T10:08:44.817Z,112.50
2023-08-21T10:09:44.554Z,112.50
2023-08-21T10:10:44.528Z,112.50
2023-08-21T10:11:45.864Z,112.50
2023-08-21T10:12:44.495Z,118.12
2023-08-21T10:13:44.490Z,118.12
2023-08-21T10:14:45.296Z,118.12
2023-08-21T10:15:48.852Z,118.12
2023-08-21T10:16:44.505Z,118.12
2023-08-21T10:17:44.464Z,118.12
2023-08-21T10:18:45.309Z,112.50
2023-08-21T10:19:45.332Z,118.12
2023-08-21T10:20:44.404Z,106.88
2023-08-21T10:21:44.396Z,101.25
2023-08-21T10:22:45.297Z,106.88
2023-08-21T10:23:45.882Z,106.88
2023-08-21T10:24:44.371Z,112.50
2023-08-21T10:25:44.386Z,112.50
2023-08-21T10:26:51.299Z,106.88
2023-08-21T10:27:47.302Z,106.88
2023-08-21T10:28:44.327Z,106.88
2023-08-21T10:29:44.323Z,106.88
2023-08-21T10:30:46.844Z,106.88
2023-08-21T10:31:44.509Z,106.88
2023-08-21T10:32:44.301Z,101.25
2023-08-21T10:33:46.804Z,101.25
2023-08-21T10:34:44.253Z,101.25
2023-08-21T10:35:44.284Z,101.25
2023-08-21T10:36:44.298Z,101.25
2023-08-21T10:37:44.229Z,101.25
2023-08-21T10:38:44.213Z,101.25
2023-08-21T10:39:44.343Z,101.25
2023-08-21T10:40:50.812Z,101.25
2023-08-21T10:41:44.185Z,101.25
2023-08-21T10:42:44.184Z,101.25
2023-08-21T10:43:44.153Z,101.25
2023-08-21T10:44:44.202Z,101.25
2023-08-21T10:45:44.136Z,101.25
2023-08-21T10:46:44.163Z,101.25
2023-08-21T10:47:44.156Z,101.25
2023-08-21T10:48:44.819Z,101.25
2023-08-21T10:49:44.823Z,101.25
2023-08-21T10:50:44.100Z,101.25
2023-08-21T10:51:44.827Z,101.25
2023-08-21T10:52:44.809Z,101.25
2023-08-21T10:53:44.064Z,101.25
2023-08-21T10:54:44.041Z,101.25
2023-08-21T10:55:44.802Z,101.25
2023-08-21T10:56:44.344Z,101.25
2023-08-21T10:57:44.818Z,106.88
2023-08-21T10:58:44.807Z,112.50
2023-08-21T10:59:43.972Z,123.75
2023-08-21T11:00:44.847Z,123.75
2023-08-21T11:01:49.373Z,129.38
2023-08-21T11:02:43.995Z,129.38
2023-08-21T11:03:43.951Z,118.12
2023-08-21T11:04:43.952Z,106.88
2023-08-21T11:05:47.341Z,95.62
2023-08-21T11:06:50.832Z,95.62
2023-08-21T11:07:50.813Z,101.25
2023-08-21T11:08:43.893Z,101.25
2023-08-21T11:09:43.893Z,106.88
2023-08-21T11:10:43.888Z,106.88
2023-08-21T11:11:46.813Z,101.25
2023-08-21T11:12:43.837Z,106.88
2023-08-21T11:13:43.835Z,106.88
2023-08-21T11:14:50.829Z,106.88
2023-08-21T11:15:46.313Z,118.12
2023-08-21T11:16:43.889Z,140.62
2023-08-21T11:17:43.822Z,135.00
2023-08-21T11:18:43.808Z,129.38
2023-08-21T11:19:46.355Z,123.75
2023-08-21T11:20:44.382Z,123.75
2023-08-21T11:21:46.315Z,112.50
2023-08-21T11:22:43.772Z,123.75
2023-08-21T11:23:43.731Z,90.00
2023-08-21T11:24:43.862Z,95.62
2023-08-21T11:25:46.348Z,129.38
2023-08-21T11:26:46.336Z,129.38
2023-08-21T11:27:43.689Z,123.75
2023-08-21T11:28:43.718Z,123.75
2023-08-21T11:29:43.666Z,123.75
2023-08-21T11:30:43.656Z,123.75
2023-08-21T11:31:46.333Z,123.75
2023-08-21T11:32:44.366Z,123.75
2023-08-21T11:33:43.626Z,123.75
2023-08-21T11:34:43.640Z,123.75
2023-08-21T11:35:46.368Z,123.75
2023-08-21T11:36:43.594Z,129.38
2023-08-21T11:37:43.585Z,129.38
2023-08-21T11:38:43.601Z,135.00
2023-08-21T11:39:43.560Z,135.00
2023-08-21T11:40:43.566Z,135.00
2023-08-21T11:41:43.552Z,135.00
2023-08-21T11:42:43.527Z,135.00
2023-08-21T11:43:43.514Z,135.00
2023-08-21T11:44:46.316Z,140.62
2023-08-21T11:45:53.597Z,140.62
2023-08-21T11:46:44.884Z,140.62
2023-08-21T11:47:43.533Z,146.25
2023-08-21T11:48:43.483Z,146.25
2023-08-21T11:49:44.319Z,146.25
2023-08-21T11:50:45.490Z,151.88
2023-08-21T11:51:44.322Z,151.88
2023-08-21T11:52:43.417Z,151.88
2023-08-21T11:53:43.874Z,151.88
2023-08-21T11:54:43.418Z,151.88
2023-08-21T11:55:43.397Z,157.50
2023-08-21T11:56:45.355Z,157.50
2023-08-21T11:57:43.370Z,163.12
2023-08-21T11:58:43.895Z,168.75
2023-08-21T11:59:43.360Z,123.75
2023-08-21T12:00:44.374Z,118.12
2023-08-21T12:01:43.387Z,118.12
2023-08-21T12:02:43.308Z,118.12
2023-08-21T12:03:45.855Z,123.75
2023-08-21T12:04:44.684Z,135.00
2023-08-21T12:05:43.297Z,146.25
2023-08-21T12:06:43.832Z,168.75
2023-08-21T12:07:43.257Z,185.62
2023-08-21T12:08:43.362Z,202.50
2023-08-21T12:09:45.837Z,213.75
2023-08-21T12:10:43.892Z,196.88
2023-08-21T12:11:43.226Z,213.75
2023-08-21T12:12:45.827Z,219.38
2023-08-21T12:13:43.188Z,180.00
2023-08-21T12:14:43.366Z,180.00
2023-08-21T12:15:49.867Z,185.62
2023-08-21T12:16:43.835Z,174.38
2023-08-21T12:17:45.848Z,151.88
2023-08-21T12:18:43.162Z,157.50
2023-08-21T12:19:43.150Z,157.50
2023-08-21T12:20:43.112Z,230.62
2023-08-21T12:21:43.107Z,151.88
2023-08-21T12:22:45.890Z,146.25
2023-08-21T12:23:43.094Z,146.25
2023-08-21T12:24:43.090Z,146.25
2023-08-21T12:25:43.063Z,140.62
2023-08-21T12:26:50.218Z,146.25
2023-08-21T12:27:45.689Z,123.75
2023-08-21T12:28:43.024Z,213.75
2023-08-21T12:29:43.024Z,208.12
2023-08-21T12:30:43.357Z,196.88
2023-08-21T12:31:43.031Z,208.12
2023-08-21T12:32:43.039Z,191.25
2023-08-21T12:33:43.020Z,123.75
2023-08-21T12:34:42.956Z,174.38
2023-08-21T12:35:42.991Z,168.75
2023-08-21T12:36:42.962Z,196.88
2023-08-21T12:37:42.944Z,140.62
2023-08-21T12:38:42.918Z,140.62
2023-08-21T12:39:42.917Z,118.12
2023-08-21T12:40:42.902Z,118.12
2023-08-21T12:41:42.890Z,129.38
2023-08-21T12:42:43.883Z,151.88
2023-08-21T12:43:42.860Z,135.00
2023-08-21T12:44:42.842Z,230.62
2023-08-21T12:45:43.849Z,230.62
2023-08-21T12:46:42.845Z,236.25
2023-08-21T12:47:43.009Z,241.88
2023-08-21T12:48:42.844Z,247.50
2023-08-21T12:49:45.344Z,270.00
2023-08-21T12:50:42.796Z,281.25
2023-08-21T12:51:42.771Z,281.25
2023-08-21T12:52:45.333Z,253.12
2023-08-21T12:53:42.764Z,253.12
2023-08-21T12:54:42.790Z,219.38